Terminal Aerodrome Forecast
Issued by NWS Charleston, WV

Current Version | Previous Version | Graphics & Text | Print | Product List | Glossary On
Versions: 1 2 3 4 5 6 7 8 9 10 11 12 13 14 15 16 17 18 19 20 21 22 23 24 25 26 27 28 29
000
FTUS41 KRLX 312300
TAFHTS
TAF
KHTS 312339Z 0100/0124 00000KT P6SM SCT050
     FM010800 00000KT 6SM BR SCT050
     FM011000 00000KT 5SM BR BKN050
     FM011400 00000KT P6SM BKN050
     FM011600 14004KT P6SM BKN040
     FM011700 13005KT P6SM VCTS BKN040CB=

USA.gov is the U.S. government's official web portal to all federal, state and local government web resources and services.